sensor_id;sensor_type;location;lat;lon;timestamp;P1;durP1;ratioP1;P2;durP2;ratioP2
36241;SDS011;22283;42.748;12.732;2023-12-07T00:03:58;22.33;;;11.93;;
36241;SDS011;22283;42.748;12.732;2023-12-07T00:08:58;22.33;;;11.03;;
36241;SDS011;22283;42.748;12.732;2023-12-07T00:14:01;24.80;;;12.52;;
36241;SDS011;22283;42.748;12.732;2023-12-07T00:19:02;20.40;;;9.53;;
36241;SDS011;22283;42.748;12.732;2023-12-07T00:24:03;23.57;;;9.83;;
36241;SDS011;22283;42.748;12.732;2023-12-07T00:29:04;18.93;;;9.40;;
36241;SDS011;22283;42.748;12.732;2023-12-07T00:34:05;24.27;;;12.60;;
36241;SDS011;22283;42.748;12.732;2023-12-07T00:39:06;26.92;;;12.98;;
36241;SDS011;22283;42.748;12.732;2023-12-07T00:44:07;30.63;;;13.73;;
36241;SDS011;22283;42.748;12.732;2023-12-07T00:49:07;30.83;;;14.57;;
36241;SDS011;22283;42.748;12.732;2023-12-07T00:54:08;31.37;;;13.47;;
36241;SDS011;22283;42.748;12.732;2023-12-07T00:59:08;27.73;;;14.00;;
36241;SDS011;22283;42.748;12.732;2023-12-07T01:04:09;28.90;;;13.90;;
36241;SDS011;22283;42.748;12.732;2023-12-07T01:09:10;33.10;;;13.30;;
36241;SDS011;22283;42.748;12.732;2023-12-07T01:14:13;30.70;;;14.75;;
36241;SDS011;22283;42.748;12.732;2023-12-07T01:19:14;28.83;;;14.63;;
36241;SDS011;22283;42.748;12.732;2023-12-07T01:24:14;29.30;;;14.37;;
36241;SDS011;22283;42.748;12.732;2023-12-07T01:29:15;29.87;;;15.60;;
36241;SDS011;22283;42.748;12.732;2023-12-07T01:34:17;25.67;;;13.07;;
36241;SDS011;22283;42.748;12.732;2023-12-07T01:39:18;29.63;;;14.10;;
36241;SDS011;22283;42.748;12.732;2023-12-07T01:44:19;31.03;;;13.63;;
36241;SDS011;22283;42.748;12.732;2023-12-07T01:49:20;34.77;;;13.80;;
36241;SDS011;22283;42.748;12.732;2023-12-07T01:54:21;31.30;;;14.30;;
36241;SDS011;22283;42.748;12.732;2023-12-07T01:59:22;25.57;;;12.77;;
36241;SDS011;22283;42.748;12.732;2023-12-07T02:09:24;27.17;;;13.23;;
36241;SDS011;22283;42.748;12.732;2023-12-07T02:14:25;30.15;;;14.38;;
36241;SDS011;22283;42.748;12.732;2023-12-07T02:30:10;23.63;;;10.90;;
36241;SDS011;22283;42.748;12.732;2023-12-07T02:35:11;22.70;;;9.98;;
36241;SDS011;22283;42.748;12.732;2023-12-07T02:40:14;21.58;;;10.90;;
36241;SDS011;22283;42.748;12.732;2023-12-07T02:45:17;22.17;;;13.15;;
36241;SDS011;22283;42.748;12.732;2023-12-07T02:50:18;26.60;;;13.73;;
36241;SDS011;22283;42.748;12.732;2023-12-07T02:55:19;21.47;;;10.77;;
36241;SDS011;22283;42.748;12.732;2023-12-07T03:00:19;25.87;;;11.50;;
36241;SDS011;22283;42.748;12.732;2023-12-07T03:05:22;27.08;;;12.20;;
36241;SDS011;22283;42.748;12.732;2023-12-07T03:10:23;18.23;;;9.30;;
36241;SDS011;22283;42.748;12.732;2023-12-07T03:15:24;20.20;;;9.60;;
36241;SDS011;22283;42.748;12.732;2023-12-07T03:20:24;18.07;;;8.53;;
36241;SDS011;22283;42.748;12.732;2023-12-07T03:25:25;13.77;;;8.07;;
36241;SDS011;22283;42.748;12.732;2023-12-07T03:30:25;17.50;;;9.47;;
36241;SDS011;22283;42.748;12.732;2023-12-07T03:35:26;19.93;;;8.97;;
36241;SDS011;22283;42.748;12.732;2023-12-07T03:40:26;17.30;;;9.73;;
36241;SDS011;22283;42.748;12.732;2023-12-07T03:45:27;18.70;;;9.77;;
36241;SDS011;22283;42.748;12.732;2023-12-07T03:50:31;26.42;;;12.68;;
36241;SDS011;22283;42.748;12.732;2023-12-07T03:55:32;23.40;;;11.25;;
36241;SDS011;22283;42.748;12.732;2023-12-07T04:00:33;24.13;;;11.07;;
36241;SDS011;22283;42.748;12.732;2023-12-07T04:05:34;24.53;;;11.77;;
36241;SDS011;22283;42.748;12.732;2023-12-07T04:10:34;27.27;;;12.90;;
36241;SDS011;22283;42.748;12.732;2023-12-07T04:15:35;28.70;;;13.87;;
36241;SDS011;22283;42.748;12.732;2023-12-07T04:20:36;32.83;;;15.00;;
36241;SDS011;22283;42.748;12.732;2023-12-07T04:25:37;35.08;;;14.32;;
36241;SDS011;22283;42.748;12.732;2023-12-07T04:30:40;24.33;;;12.73;;
36241;SDS011;22283;42.748;12.732;2023-12-07T04:35:40;26.27;;;12.40;;
36241;SDS011;22283;42.748;12.732;2023-12-07T04:40:42;22.92;;;11.73;;
36241;SDS011;22283;42.748;12.732;2023-12-07T04:45:42;23.97;;;10.23;;
36241;SDS011;22283;42.748;12.732;2023-12-07T04:50:43;23.60;;;9.80;;
36241;SDS011;22283;42.748;12.732;2023-12-07T04:55:43;21.97;;;11.00;;
36241;SDS011;22283;42.748;12.732;2023-12-07T05:00:48;25.52;;;11.55;;
36241;SDS011;22283;42.748;12.732;2023-12-07T05:05:49;25.33;;;12.43;;
36241;SDS011;22283;42.748;12.732;2023-12-07T05:10:50;25.03;;;10.80;;
36241;SDS011;22283;42.748;12.732;2023-12-07T05:15:51;31.10;;;12.07;;
36241;SDS011;22283;42.748;12.732;2023-12-07T05:20:52;31.77;;;11.87;;
36241;SDS011;22283;42.748;12.732;2023-12-07T05:31:18;33.30;;;13.15;;
36241;SDS011;22283;42.748;12.732;2023-12-07T05:36:19;28.30;;;12.75;;
36241;SDS011;22283;42.748;12.732;2023-12-07T05:41:19;32.17;;;13.90;;
36241;SDS011;22283;42.748;12.732;2023-12-07T05:46:20;32.27;;;13.80;;
36241;SDS011;22283;42.748;12.732;2023-12-07T05:51:21;27.80;;;13.37;;
36241;SDS011;22283;42.748;12.732;2023-12-07T05:56:23;24.95;;;11.82;;
36241;SDS011;22283;42.748;12.732;2023-12-07T06:01:23;25.50;;;12.10;;
36241;SDS011;22283;42.748;12.732;2023-12-07T06:06:24;32.85;;;12.23;;
36241;SDS011;22283;42.748;12.732;2023-12-07T06:11:25;27.63;;;13.97;;
36241;SDS011;22283;42.748;12.732;2023-12-07T06:16:26;26.57;;;11.27;;
36241;SDS011;22283;42.748;12.732;2023-12-07T06:21:26;30.43;;;12.67;;
36241;SDS011;22283;42.748;12.732;2023-12-07T06:26:30;23.27;;;11.65;;
36241;SDS011;22283;42.748;12.732;2023-12-07T06:31:30;28.67;;;12.87;;
36241;SDS011;22283;42.748;12.732;2023-12-07T06:36:31;28.87;;;12.03;;
36241;SDS011;22283;42.748;12.732;2023-12-07T06:41:31;27.93;;;12.40;;
36241;SDS011;22283;42.748;12.732;2023-12-07T06:46:33;31.10;;;13.73;;
36241;SDS011;22283;42.748;12.732;2023-12-07T06:51:34;30.97;;;14.43;;
36241;SDS011;22283;42.748;12.732;2023-12-07T06:56:34;30.43;;;14.07;;
36241;SDS011;22283;42.748;12.732;2023-12-07T07:01:36;33.43;;;15.20;;
36241;SDS011;22283;42.748;12.732;2023-12-07T07:11:38;30.33;;;11.57;;
36241;SDS011;22283;42.748;12.732;2023-12-07T07:16:39;25.90;;;12.00;;
36241;SDS011;22283;42.748;12.732;2023-12-07T07:21:40;26.33;;;11.60;;
36241;SDS011;22283;42.748;12.732;2023-12-07T07:26:41;24.00;;;12.10;;
36241;SDS011;22283;42.748;12.732;2023-12-07T07:31:41;26.30;;;11.30;;
36241;SDS011;22283;42.748;12.732;2023-12-07T07:36:42;30.93;;;14.20;;
36241;SDS011;22283;42.748;12.732;2023-12-07T07:41:43;24.60;;;12.03;;
36241;SDS011;22283;42.748;12.732;2023-12-07T07:46:43;28.60;;;11.13;;
36241;SDS011;22283;42.748;12.732;2023-12-07T07:51:44;31.53;;;12.73;;
36241;SDS011;22283;42.748;12.732;2023-12-07T07:56:44;29.67;;;11.67;;
36241;SDS011;22283;42.748;12.732;2023-12-07T08:01:45;23.00;;;9.60;;
36241;SDS011;22283;42.748;12.732;2023-12-07T08:06:47;29.83;;;11.00;;
36241;SDS011;22283;42.748;12.732;2023-12-07T08:11:48;22.43;;;10.50;;
36241;SDS011;22283;42.748;12.732;2023-12-07T08:16:48;19.47;;;10.30;;
36241;SDS011;22283;42.748;12.732;2023-12-07T08:21:50;19.67;;;9.70;;
36241;SDS011;22283;42.748;12.732;2023-12-07T08:26:51;16.67;;;9.00;;
36241;SDS011;22283;42.748;12.732;2023-12-07T08:31:52;22.80;;;10.40;;
36241;SDS011;22283;42.748;12.732;2023-12-07T08:36:54;22.63;;;10.67;;
36241;SDS011;22283;42.748;12.732;2023-12-07T08:41:54;20.15;;;10.38;;
36241;SDS011;22283;42.748;12.732;2023-12-07T08:46:55;20.07;;;10.57;;
36241;SDS011;22283;42.748;12.732;2023-12-07T08:51:56;17.93;;;10.63;;
36241;SDS011;22283;42.748;12.732;2023-12-07T08:56:57;21.70;;;12.32;;
36241;SDS011;22283;42.748;12.732;2023-12-07T09:01:58;23.07;;;10.93;;
36241;SDS011;22283;42.748;12.732;2023-12-07T09:06:59;18.87;;;9.53;;
36241;SDS011;22283;42.748;12.732;2023-12-07T09:12:00;21.43;;;9.73;;
36241;SDS011;22283;42.748;12.732;2023-12-07T09:17:00;30.57;;;10.93;;
36241;SDS011;22283;42.748;12.732;2023-12-07T09:22:01;22.93;;;11.23;;
36241;SDS011;22283;42.748;12.732;2023-12-07T09:27:01;18.73;;;11.63;;
36241;SDS011;22283;42.748;12.732;2023-12-07T09:32:02;19.93;;;10.77;;
36241;SDS011;22283;42.748;12.732;2023-12-07T09:37:07;19.00;;;11.77;;
36241;SDS011;22283;42.748;12.732;2023-12-07T09:42:11;21.08;;;12.18;;
36241;SDS011;22283;42.748;12.732;2023-12-07T09:47:12;20.00;;;10.83;;
36241;SDS011;22283;42.748;12.732;2023-12-07T09:52:14;21.38;;;11.75;;
36241;SDS011;22283;42.748;12.732;2023-12-07T09:57:15;23.20;;;12.55;;
36241;SDS011;22283;42.748;12.732;2023-12-07T10:02:16;17.83;;;10.87;;
36241;SDS011;22283;42.748;12.732;2023-12-07T10:07:18;27.40;;;12.93;;
36241;SDS011;22283;42.748;12.732;2023-12-07T10:12:34;25.73;;;12.45;;
36241;SDS011;22283;42.748;12.732;2023-12-07T10:23:10;32.58;;;18.40;;
36241;SDS011;22283;42.748;12.732;2023-12-07T10:28:11;42.90;;;24.83;;
36241;SDS011;22283;42.748;12.732;2023-12-07T10:33:12;30.10;;;13.52;;
36241;SDS011;22283;42.748;12.732;2023-12-07T10:38:13;24.60;;;13.43;;
36241;SDS011;22283;42.748;12.732;2023-12-07T10:43:14;37.50;;;20.53;;
36241;SDS011;22283;42.748;12.732;2023-12-07T10:48:16;25.73;;;14.32;;
36241;SDS011;22283;42.748;12.732;2023-12-07T10:58:19;32.22;;;18.75;;
36241;SDS011;22283;42.748;12.732;2023-12-07T11:03:23;22.13;;;14.10;;
36241;SDS011;22283;42.748;12.732;2023-12-07T11:08:33;34.47;;;17.55;;
36241;SDS011;22283;42.748;12.732;2023-12-07T11:13:38;28.48;;;16.90;;
36241;SDS011;22283;42.748;12.732;2023-12-07T11:18:45;47.45;;;32.60;;
36241;SDS011;22283;42.748;12.732;2023-12-07T11:23:46;49.03;;;28.50;;
36241;SDS011;22283;42.748;12.732;2023-12-07T11:28:47;25.55;;;15.18;;
36241;SDS011;22283;42.748;12.732;2023-12-07T11:33:48;33.60;;;20.03;;
36241;SDS011;22283;42.748;12.732;2023-12-07T11:44:01;32.35;;;18.08;;
36241;SDS011;22283;42.748;12.732;2023-12-07T11:49:03;37.50;;;20.25;;
36241;SDS011;22283;42.748;12.732;2023-12-07T11:54:03;37.53;;;19.07;;
36241;SDS011;22283;42.748;12.732;2023-12-07T11:59:05;28.50;;;15.70;;
36241;SDS011;22283;42.748;12.732;2023-12-07T12:04:05;166.13;;;112.10;;
36241;SDS011;22283;42.748;12.732;2023-12-07T12:09:06;31.83;;;19.33;;
36241;SDS011;22283;42.748;12.732;2023-12-07T12:14:07;33.28;;;18.33;;
36241;SDS011;22283;42.748;12.732;2023-12-07T12:19:08;33.33;;;17.10;;
36241;SDS011;22283;42.748;12.732;2023-12-07T12:24:10;33.83;;;17.58;;
36241;SDS011;22283;42.748;12.732;2023-12-07T12:29:11;28.35;;;17.23;;
36241;SDS011;22283;42.748;12.732;2023-12-07T12:34:12;29.03;;;18.40;;
36241;SDS011;22283;42.748;12.732;2023-12-07T12:39:12;39.60;;;18.80;;
36241;SDS011;22283;42.748;12.732;2023-12-07T12:44:14;28.52;;;17.65;;
36241;SDS011;22283;42.748;12.732;2023-12-07T12:49:15;34.93;;;19.83;;
36241;SDS011;22283;42.748;12.732;2023-12-07T12:54:17;35.15;;;22.00;;
36241;SDS011;22283;42.748;12.732;2023-12-07T12:59:21;32.90;;;20.88;;
36241;SDS011;22283;42.748;12.732;2023-12-07T13:04:22;32.13;;;22.50;;
36241;SDS011;22283;42.748;12.732;2023-12-07T13:09:23;32.13;;;20.07;;
36241;SDS011;22283;42.748;12.732;2023-12-07T13:14:23;36.03;;;22.70;;
36241;SDS011;22283;42.748;12.732;2023-12-07T13:19:24;41.23;;;26.07;;
36241;SDS011;22283;42.748;12.732;2023-12-07T13:24:25;47.73;;;25.97;;
36241;SDS011;22283;42.748;12.732;2023-12-07T13:29:25;51.50;;;25.67;;
36241;SDS011;22283;42.748;12.732;2023-12-07T13:34:26;42.87;;;26.53;;
36241;SDS011;22283;42.748;12.732;2023-12-07T13:39:27;32.10;;;20.90;;
36241;SDS011;22283;42.748;12.732;2023-12-07T13:44:28;42.83;;;25.60;;
36241;SDS011;22283;42.748;12.732;2023-12-07T13:49:28;39.67;;;23.67;;
36241;SDS011;22283;42.748;12.732;2023-12-07T13:54:29;39.70;;;22.60;;
36241;SDS011;22283;42.748;12.732;2023-12-07T13:59:33;38.78;;;24.00;;
36241;SDS011;22283;42.748;12.732;2023-12-07T14:04:33;47.10;;;27.83;;
36241;SDS011;22283;42.748;12.732;2023-12-07T14:09:34;66.70;;;41.20;;
36241;SDS011;22283;42.748;12.732;2023-12-07T14:14:35;51.67;;;31.10;;
36241;SDS011;22283;42.748;12.732;2023-12-07T14:19:45;46.67;;;29.25;;
36241;SDS011;22283;42.748;12.732;2023-12-07T14:24:47;41.88;;;26.48;;
36241;SDS011;22283;42.748;12.732;2023-12-07T14:29:48;42.63;;;25.87;;
36241;SDS011;22283;42.748;12.732;2023-12-07T14:34:48;48.93;;;30.87;;
36241;SDS011;22283;42.748;12.732;2023-12-07T14:39:49;51.70;;;28.57;;
36241;SDS011;22283;42.748;12.732;2023-12-07T14:44:49;44.37;;;25.03;;
36241;SDS011;22283;42.748;12.732;2023-12-07T14:49:50;45.30;;;25.63;;
36241;SDS011;22283;42.748;12.732;2023-12-07T14:54:51;54.13;;;32.53;;
36241;SDS011;22283;42.748;12.732;2023-12-07T14:59:53;46.17;;;27.58;;
36241;SDS011;22283;42.748;12.732;2023-12-07T15:04:54;54.55;;;27.98;;
36241;SDS011;22283;42.748;12.732;2023-12-07T15:09:54;48.47;;;29.00;;
36241;SDS011;22283;42.748;12.732;2023-12-07T15:14:58;49.27;;;30.23;;
36241;SDS011;22283;42.748;12.732;2023-12-07T15:20:06;62.08;;;29.95;;
36241;SDS011;22283;42.748;12.732;2023-12-07T15:25:09;48.05;;;27.35;;
36241;SDS011;22283;42.748;12.732;2023-12-07T15:30:10;53.43;;;27.43;;
36241;SDS011;22283;42.748;12.732;2023-12-07T15:35:12;55.08;;;31.60;;
36241;SDS011;22283;42.748;12.732;2023-12-07T15:40:13;68.07;;;33.77;;
36241;SDS011;22283;42.748;12.732;2023-12-07T15:45:13;57.27;;;31.93;;
36241;SDS011;22283;42.748;12.732;2023-12-07T15:50:14;74.70;;;33.20;;
36241;SDS011;22283;42.748;12.732;2023-12-07T15:55:16;57.40;;;31.88;;
36241;SDS011;22283;42.748;12.732;2023-12-07T16:00:17;61.93;;;32.80;;
36241;SDS011;22283;42.748;12.732;2023-12-07T16:05:17;60.50;;;33.70;;
36241;SDS011;22283;42.748;12.732;2023-12-07T16:10:19;64.72;;;32.85;;
36241;SDS011;22283;42.748;12.732;2023-12-07T16:15:20;68.15;;;36.55;;
36241;SDS011;22283;42.748;12.732;2023-12-07T16:20:21;70.10;;;35.57;;
36241;SDS011;22283;42.748;12.732;2023-12-07T16:25:21;67.40;;;38.53;;
36241;SDS011;22283;42.748;12.732;2023-12-07T16:30:22;70.03;;;39.00;;
36241;SDS011;22283;42.748;12.732;2023-12-07T16:35:23;78.13;;;39.27;;
36241;SDS011;22283;42.748;12.732;2023-12-07T16:40:23;67.07;;;36.07;;
36241;SDS011;22283;42.748;12.732;2023-12-07T16:45:25;77.45;;;39.30;;
36241;SDS011;22283;42.748;12.732;2023-12-07T16:50:25;73.27;;;38.90;;
36241;SDS011;22283;42.748;12.732;2023-12-07T16:55:26;72.30;;;38.83;;
36241;SDS011;22283;42.748;12.732;2023-12-07T17:00:28;67.57;;;31.27;;
36241;SDS011;22283;42.748;12.732;2023-12-07T17:05:29;43.17;;;23.23;;
36241;SDS011;22283;42.748;12.732;2023-12-07T17:10:29;60.93;;;28.37;;
36241;SDS011;22283;42.748;12.732;2023-12-07T17:15:30;61.83;;;33.40;;
36241;SDS011;22283;42.748;12.732;2023-12-07T17:20:31;57.25;;;29.45;;
36241;SDS011;22283;42.748;12.732;2023-12-07T17:25:32;45.33;;;21.40;;
36241;SDS011;22283;42.748;12.732;2023-12-07T17:30:32;43.80;;;17.77;;
36241;SDS011;22283;42.748;12.732;2023-12-07T17:35:33;35.20;;;18.10;;
36241;SDS011;22283;42.748;12.732;2023-12-07T17:40:34;28.10;;;15.47;;
36241;SDS011;22283;42.748;12.732;2023-12-07T17:45:34;27.93;;;16.70;;
36241;SDS011;22283;42.748;12.732;2023-12-07T17:50:35;44.10;;;21.23;;
36241;SDS011;22283;42.748;12.732;2023-12-07T17:55:35;44.70;;;22.83;;
36241;SDS011;22283;42.748;12.732;2023-12-07T18:00:37;40.93;;;19.23;;
36241;SDS011;22283;42.748;12.732;2023-12-07T18:05:37;42.15;;;21.33;;
36241;SDS011;22283;42.748;12.732;2023-12-07T18:10:39;42.92;;;22.33;;
36241;SDS011;22283;42.748;12.732;2023-12-07T18:15:40;56.67;;;25.60;;
36241;SDS011;22283;42.748;12.732;2023-12-07T18:20:41;58.17;;;27.00;;
36241;SDS011;22283;42.748;12.732;2023-12-07T18:30:43;90.07;;;28.80;;
36241;SDS011;22283;42.748;12.732;2023-12-07T18:35:44;132.70;;;29.63;;
36241;SDS011;22283;42.748;12.732;2023-12-07T18:40:44;96.13;;;27.97;;
36241;SDS011;22283;42.748;12.732;2023-12-07T18:45:45;57.23;;;23.30;;
36241;SDS011;22283;42.748;12.732;2023-12-07T18:50:49;58.88;;;24.33;;
36241;SDS011;22283;42.748;12.732;2023-12-07T18:55:50;55.25;;;27.10;;
36241;SDS011;22283;42.748;12.732;2023-12-07T19:00:50;75.53;;;30.83;;
36241;SDS011;22283;42.748;12.732;2023-12-07T19:05:52;49.83;;;23.88;;
36241;SDS011;22283;42.748;12.732;2023-12-07T19:10:53;43.97;;;21.50;;
36241;SDS011;22283;42.748;12.732;2023-12-07T19:15:53;60.77;;;28.50;;
36241;SDS011;22283;42.748;12.732;2023-12-07T19:20:54;76.67;;;33.60;;
36241;SDS011;22283;42.748;12.732;2023-12-07T19:25:56;77.53;;;31.73;;
36241;SDS011;22283;42.748;12.732;2023-12-07T19:30:56;62.50;;;28.80;;
36241;SDS011;22283;42.748;12.732;2023-12-07T19:35:57;66.57;;;29.20;;
36241;SDS011;22283;42.748;12.732;2023-12-07T19:40:58;80.10;;;32.90;;
36241;SDS011;22283;42.748;12.732;2023-12-07T19:45:59;85.53;;;33.17;;
36241;SDS011;22283;42.748;12.732;2023-12-07T19:51:00;92.77;;;35.97;;
36241;SDS011;22283;42.748;12.732;2023-12-07T19:56:00;74.03;;;31.20;;
36241;SDS011;22283;42.748;12.732;2023-12-07T20:01:01;63.27;;;29.23;;
36241;SDS011;22283;42.748;12.732;2023-12-07T20:06:02;72.85;;;28.15;;
36241;SDS011;22283;42.748;12.732;2023-12-07T20:11:03;85.07;;;34.57;;
36241;SDS011;22283;42.748;12.732;2023-12-07T20:16:04;96.05;;;36.22;;
36241;SDS011;22283;42.748;12.732;2023-12-07T20:21:05;127.13;;;32.63;;
36241;SDS011;22283;42.748;12.732;2023-12-07T20:26:05;117.73;;;32.43;;
36241;SDS011;22283;42.748;12.732;2023-12-07T20:31:06;92.97;;;31.67;;
36241;SDS011;22283;42.748;12.732;2023-12-07T20:36:07;89.00;;;29.80;;
36241;SDS011;22283;42.748;12.732;2023-12-07T20:41:08;75.23;;;27.77;;
36241;SDS011;22283;42.748;12.732;2023-12-07T20:46:08;99.97;;;28.33;;
36241;SDS011;22283;42.748;12.732;2023-12-07T20:51:09;95.67;;;28.43;;
36241;SDS011;22283;42.748;12.732;2023-12-07T20:56:09;70.27;;;22.43;;
36241;SDS011;22283;42.748;12.732;2023-12-07T21:01:11;61.78;;;20.48;;
36241;SDS011;22283;42.748;12.732;2023-12-07T21:06:12;53.17;;;18.13;;
36241;SDS011;22283;42.748;12.732;2023-12-07T21:11:12;66.90;;;19.20;;
36241;SDS011;22283;42.748;12.732;2023-12-07T21:16:13;98.70;;;19.47;;
36241;SDS011;22283;42.748;12.732;2023-12-07T21:21:14;107.87;;;22.57;;
36241;SDS011;22283;42.748;12.732;2023-12-07T21:26:14;81.83;;;21.87;;
36241;SDS011;22283;42.748;12.732;2023-12-07T21:31:19;109.57;;;22.23;;
36241;SDS011;22283;42.748;12.732;2023-12-07T21:36:22;82.93;;;19.90;;
36241;SDS011;22283;42.748;12.732;2023-12-07T21:41:23;47.40;;;18.87;;
36241;SDS011;22283;42.748;12.732;2023-12-07T21:46:23;63.50;;;20.63;;
36241;SDS011;22283;42.748;12.732;2023-12-07T21:51:24;53.70;;;20.37;;
36241;SDS011;22283;42.748;12.732;2023-12-07T21:56:25;54.40;;;21.80;;
36241;SDS011;22283;42.748;12.732;2023-12-07T22:01:26;49.75;;;18.85;;
36241;SDS011;22283;42.748;12.732;2023-12-07T22:06:27;43.33;;;16.97;;
36241;SDS011;22283;42.748;12.732;2023-12-07T22:11:27;47.90;;;17.10;;
36241;SDS011;22283;42.748;12.732;2023-12-07T22:16:28;47.77;;;17.60;;
36241;SDS011;22283;42.748;12.732;2023-12-07T22:21:28;79.70;;;20.73;;
36241;SDS011;22283;42.748;12.732;2023-12-07T22:26:29;75.60;;;18.07;;
36241;SDS011;22283;42.748;12.732;2023-12-07T22:31:30;68.17;;;19.10;;
36241;SDS011;22283;42.748;12.732;2023-12-07T22:36:30;52.87;;;17.37;;
36241;SDS011;22283;42.748;12.732;2023-12-07T22:41:31;51.67;;;16.63;;
36241;SDS011;22283;42.748;12.732;2023-12-07T22:46:32;35.33;;;15.60;;
36241;SDS011;22283;42.748;12.732;2023-12-07T22:51:32;45.27;;;14.33;;
36241;SDS011;22283;42.748;12.732;2023-12-07T22:56:33;31.97;;;13.97;;
36241;SDS011;22283;42.748;12.732;2023-12-07T23:01:33;29.93;;;12.03;;
36241;SDS011;22283;42.748;12.732;2023-12-07T23:06:34;51.87;;;14.50;;
36241;SDS011;22283;42.748;12.732;2023-12-07T23:11:34;83.03;;;16.03;;
36241;SDS011;22283;42.748;12.732;2023-12-07T23:16:35;30.57;;;13.57;;
36241;SDS011;22283;42.748;12.732;2023-12-07T23:21:36;39.50;;;14.33;;
36241;SDS011;22283;42.748;12.732;2023-12-07T23:26:36;58.47;;;16.00;;
36241;SDS011;22283;42.748;12.732;2023-12-07T23:31:37;51.47;;;14.10;;
36241;SDS011;22283;42.748;12.732;2023-12-07T23:36:38;58.77;;;14.97;;
36241;SDS011;22283;42.748;12.732;2023-12-07T23:41:39;21.20;;;11.60;;
36241;SDS011;22283;42.748;12.732;2023-12-07T23:46:42;27.40;;;10.03;;
36241;SDS011;22283;42.748;12.732;2023-12-07T23:51:44;35.13;;;10.73;;
36241;SDS011;22283;42.748;12.732;2023-12-07T23:56:44;59.03;;;12.10;;
